Time;durP1;ratioP1;P1;durP2;ratioP2;P2;SDS_P1;SDS_P2;PMS_P1;PMS_P2;Temp;Humidity;BMP_temperature;BMP_pressure;BME280_temperature;BME280_humidity;BME280_pressure;Samples;Min_cycle;Max_cycle;Signal;HPM_P1;HPM_P2
2022/07/25 00:01:42;;;;;;;13.70;7.10;;;;;;;30.64;28.02;98431.41;4882552;29;20516;-81
2022/07/25 00:04:07;;;;;;;11.82;7.03;;;;;;;30.60;28.77;98416.03;4882346;29;20052;-81
2022/07/25 00:06:34;;;;;;;9.40;6.65;;;;;;;30.57;28.30;98421.91;4867143;29;20568;-81
2022/07/25 00:08:59;;;;;;;10.65;6.80;;;;;;;30.59;28.17;98434.06;4881872;29;20075;-81
2022/07/25 00:11:25;;;;;;;13.80;7.00;;;;;;;30.57;28.37;98430.84;4898562;29;20032;-81
2022/07/25 00:13:50;;;;;;;9.73;6.50;;;;;;;30.56;28.24;98439.16;4882645;29;20048;-81
2022/07/25 00:16:16;;;;;;;11.48;7.00;;;;;;;30.53;28.58;98434.28;4899180;29;20402;-80
2022/07/25 00:18:42;;;;;;;10.48;6.88;;;;;;;30.49;28.31;98426.72;4867088;29;20043;-80
2022/07/25 00:21:07;;;;;;;11.25;6.60;;;;;;;30.49;28.45;98424.03;4899573;29;20059;-80
2022/07/25 00:23:33;;;;;;;12.07;5.97;;;;;;;30.46;28.84;98434.50;4882704;29;20072;-80
2022/07/25 00:25:59;;;;;;;10.15;5.60;;;;;;;30.38;29.62;98434.91;4918476;29;20032;-80
2022/07/25 00:28:24;;;;;;;12.82;5.65;;;;;;;30.33;29.90;98442.94;4907819;29;20024;-81
2022/07/25 00:30:50;;;;;;;14.27;5.75;;;;;;;30.20;30.70;98436.06;4900787;29;20039;-81
2022/07/25 00:33:15;;;;;;;12.07;5.55;;;;;;;30.06;30.66;98447.25;4885149;29;20092;-81
2022/07/25 00:35:41;;;;;;;13.20;5.93;;;;;;;30.10;30.90;98450.25;4901202;29;20483;-80
2022/07/25 00:38:06;;;;;;;8.75;5.45;;;;;;;30.15;30.59;98457.56;4917658;29;20032;-80
2022/07/25 00:40:32;;;;;;;9.73;5.88;;;;;;;30.10;30.74;98464.50;4917738;29;20052;-80
2022/07/25 00:42:57;;;;;;;7.95;5.47;;;;;;;30.07;31.31;98462.31;4917725;29;20032;-80
2022/07/25 00:45:23;;;;;;;7.28;5.80;;;;;;;30.12;31.37;98480.41;4869434;29;20066;-81
2022/07/25 00:47:48;;;;;;;8.85;5.25;;;;;;;30.17;31.02;98476.94;4900460;29;20472;-80
2022/07/25 00:50:14;;;;;;;8.85;5.32;;;;;;;30.19;31.15;98480.19;4917567;29;20036;-80
2022/07/25 00:52:39;;;;;;;11.05;5.80;;;;;;;30.22;31.09;98471.63;4900597;29;20472;-80
2022/07/25 00:55:05;;;;;;;10.57;5.10;;;;;;;30.26;31.19;98472.75;4884666;29;20147;-80
2022/07/25 00:57:31;;;;;;;10.73;5.43;;;;;;;30.25;31.19;98471.13;4899705;29;20032;-82
2022/07/25 00:59:56;;;;;;;9.60;5.50;;;;;;;30.26;31.61;98481.63;4884595;29;20036;-82
2022/07/25 01:02:22;;;;;;;11.60;5.43;;;;;;;30.23;31.24;98471.38;4885106;29;20035;-82
2022/07/25 01:04:47;;;;;;;8.65;5.28;;;;;;;30.20;31.74;98471.88;4869280;29;20036;-82
2022/07/25 01:07:13;;;;;;;8.95;5.43;;;;;;;30.18;31.57;98478.59;4885143;29;20064;-82
2022/07/25 01:09:38;;;;;;;9.15;5.70;;;;;;;30.12;31.48;98473.13;4884367;29;20075;-83
2022/07/25 01:12:04;;;;;;;10.88;5.65;;;;;;;30.13;31.85;98476.66;4916655;29;20039;-82
2022/07/25 01:14:30;;;;;;;9.50;5.63;;;;;;;30.08;31.75;98485.47;4916763;29;20036;-82
2022/07/25 01:16:55;;;;;;;10.90;5.82;;;;;;;30.07;31.93;98491.91;4916824;29;20036;-83
2022/07/25 01:19:21;;;;;;;11.40;5.82;;;;;;;30.10;31.79;98504.06;4899652;29;20237;-82
2022/07/25 01:21:46;;;;;;;7.70;5.50;;;;;;;30.08;31.87;98503.50;4883760;29;20032;-83
2022/07/25 01:24:11;;;;;;;12.30;5.53;;;;;;;30.00;31.93;98501.22;4899247;29;20039;-83
2022/07/25 01:26:37;;;;;;;10.07;5.30;;;;;;;29.99;31.94;98524.66;4868395;29;20067;-83
2022/07/25 01:29:03;;;;;;;7.40;5.32;;;;;;;30.01;31.93;98535.16;4884423;29;20035;-83
2022/07/25 01:31:29;;;;;;;8.20;5.50;;;;;;;29.99;31.81;98527.34;4884070;29;20036;-82
2022/07/25 01:33:54;;;;;;;13.52;5.18;;;;;;;29.99;31.83;98542.69;4916362;29;20043;-84
2022/07/25 01:36:20;;;;;;;8.68;5.38;;;;;;;29.96;32.22;98543.97;4916191;29;20044;-83
2022/07/25 01:38:45;;;;;;;7.85;5.13;;;;;;;29.97;31.91;98561.75;4867657;29;20103;-83
2022/07/25 01:41:11;;;;;;;7.45;5.00;;;;;;;29.93;32.42;98566.00;4915793;29;20115;-83
2022/07/25 01:43:36;;;;;;;7.75;5.30;;;;;;;29.89;32.17;98581.81;4916146;29;20384;-82
2022/07/25 01:46:02;;;;;;;12.45;5.68;;;;;;;29.87;32.31;98580.44;4898657;29;20052;-83
2022/07/25 01:48:27;;;;;;;8.27;5.75;;;;;;;29.81;32.41;98578.72;4899338;29;20035;-82
2022/07/25 01:50:53;;;;;;;8.00;5.43;;;;;;;29.83;32.03;98582.81;4868407;29;20495;-83
2022/07/25 01:53:18;;;;;;;6.70;5.28;;;;;;;29.80;32.25;98583.31;4916350;29;20128;-83
2022/07/25 01:55:44;;;;;;;10.30;5.63;;;;;;;29.76;32.21;98590.19;4883501;29;20447;-84
2022/07/25 01:58:10;;;;;;;8.40;5.10;;;;;;;29.78;32.20;98588.91;4916106;29;20398;-82
2022/07/25 02:00:35;;;;;;;8.90;5.25;;;;;;;29.82;32.18;98588.44;4884010;29;20032;-82
2022/07/25 02:05:45;;;;;;;8.55;5.57;;;;;;;29.80;32.66;98574.44;4901832;29;20439;-82
2022/07/25 02:08:10;;;;;;;6.30;4.72;;;;;;;29.83;32.75;98573.94;4883703;29;20028;-83
2022/07/25 02:10:36;;;;;;;12.25;5.50;;;;;;;29.78;32.63;98559.31;4899302;29;20028;-82
2022/07/25 02:13:01;;;;;;;11.38;5.47;;;;;;;29.80;32.65;98564.47;4883796;29;20036;-82
2022/07/25 02:15:27;;;;;;;8.48;5.60;;;;;;;29.81;32.87;98570.66;4884034;29;20028;-82
2022/07/25 02:17:52;;;;;;;8.48;5.30;;;;;;;29.74;32.80;98566.22;4883011;29;20040;-81
2022/07/25 02:20:18;;;;;;;10.80;5.72;;;;;;;29.65;32.83;98556.13;4883872;29;20472;-82
2022/07/25 02:22:43;;;;;;;8.25;5.13;;;;;;;29.69;32.98;98565.34;4883737;29;20111;-82
2022/07/25 02:25:09;;;;;;;7.55;5.45;;;;;;;29.72;33.06;98564.88;4898905;29;20567;-82
2022/07/25 02:27:34;;;;;;;7.50;5.57;;;;;;;29.64;33.37;98554.53;4899426;29;20028;-82
2022/07/25 02:30:00;;;;;;;11.32;5.63;;;;;;;29.58;33.66;98556.31;4899387;29;20032;-82
2022/07/25 02:32:25;;;;;;;7.18;5.65;;;;;;;29.57;33.81;98560.06;4898620;29;20047;-82
2022/07/25 02:34:51;;;;;;;8.02;6.07;;;;;;;29.54;33.68;98561.38;4918648;29;20036;-82
2022/07/25 02:37:17;;;;;;;8.73;5.65;;;;;;;29.49;33.66;98557.78;4903004;29;20040;-83
2022/07/25 02:39:42;;;;;;;11.75;5.93;;;;;;;29.50;34.10;98564.78;4887010;29;20039;-83
2022/07/25 02:42:08;;;;;;;8.35;5.60;;;;;;;29.47;33.86;98549.16;4903023;29;20120;-82
2022/07/25 02:44:33;;;;;;;8.60;5.90;;;;;;;29.47;34.08;98557.22;4902533;29;20444;-83
2022/07/25 02:46:59;;;;;;;8.25;5.82;;;;;;;29.47;34.03;98557.22;4903041;29;20036;-82
2022/07/25 02:49:24;;;;;;;10.05;6.05;;;;;;;29.43;34.43;98548.84;4903176;29;20036;-82
2022/07/25 02:51:50;;;;;;;8.02;5.57;;;;;;;29.33;34.33;98546.78;4887693;29;20039;-82
2022/07/25 02:54:15;;;;;;;9.55;5.95;;;;;;;29.36;34.18;98554.34;4886758;29;20048;-82
2022/07/25 02:56:41;;;;;;;6.97;6.03;;;;;;;29.36;34.13;98551.66;4886248;29;20079;-82
2022/07/25 02:59:06;;;;;;;12.38;6.20;;;;;;;29.35;34.22;98555.44;4901931;29;20040;-82
2022/07/25 03:01:32;;;;;;;8.43;6.45;;;;;;;29.28;34.22;98552.06;4919725;29;20519;-82
2022/07/25 03:03:57;;;;;;;7.65;6.40;;;;;;;29.19;34.34;98545.47;4903067;29;20024;-82
2022/07/25 03:06:23;;;;;;;7.50;6.55;;;;;;;29.16;34.42;98552.13;4902846;29;20108;-82
2022/07/25 03:08:48;;;;;;;12.23;6.82;;;;;;;29.15;34.21;98553.19;4885741;29;20036;-82
2022/07/25 03:11:15;;;;;;;9.45;6.70;;;;;;;29.11;34.52;98557.41;4871537;29;20086;-81
2022/07/25 03:13:41;;;;;;;9.07;6.50;;;;;;;29.09;34.25;98556.03;4902308;29;20056;-82
2022/07/25 03:16:06;;;;;;;10.80;6.90;;;;;;;29.11;34.68;98556.59;4886849;29;20499;-82
2022/07/25 03:18:32;;;;;;;10.80;6.47;;;;;;;29.15;34.38;98553.19;4886546;29;20032;-82
2022/07/25 03:20:57;;;;;;;8.95;6.43;;;;;;;29.08;34.68;98541.75;4886340;29;20095;-83
2022/07/25 03:23:25;;;;;;;8.52;6.40;;;;;;;29.16;35.22;98546.75;4918683;29;20040;-81
2022/07/25 03:25:51;;;;;;;11.70;6.93;;;;;;;29.19;34.87;98545.47;4902422;29;20035;-82
2022/07/25 03:28:17;;;;;;;9.98;6.20;;;;;;;29.29;34.45;98551.03;4901478;29;20396;-82
2022/07/25 03:30:42;;;;;;;10.07;6.30;;;;;;;29.30;34.70;98552.63;4918757;29;20036;-83
2022/07/25 03:33:08;;;;;;;11.73;5.88;;;;;;;29.30;34.89;98544.56;4870654;29;20079;-83
2022/07/25 03:35:36;;;;;;;12.82;6.45;;;;;;;29.38;34.86;98548.72;4886860;29;20063;-81
2022/07/25 03:38:02;;;;;;;;;;;;;;;29.46;34.77;98548.34;4886435;29;20092;-82
2022/07/25 03:40:27;;;;;;;8.43;6.10;;;;;;;29.51;34.83;98544.91;4918523;29;19919;-82
2022/07/25 03:42:54;;;;;;;8.32;6.40;;;;;;;29.67;34.38;98538.69;4918651;29;20055;-83
2022/07/25 03:45:19;;;;;;;7.15;5.80;;;;;;;30.07;33.60;98536.84;4901000;29;20471;-81
2022/07/25 03:47:45;;;;;;;8.93;6.53;;;;;;;30.39;33.43;98534.31;4870313;29;20040;-83
2022/07/25 03:50:11;;;;;;;10.77;6.15;;;;;;;30.62;32.88;98535.94;4901721;29;20032;-82
2022/07/25 03:52:38;;;;;;;11.48;6.00;;;;;;;30.71;32.82;98536.31;4870372;29;20408;-82
2022/07/25 03:55:08;;;;;;;8.68;6.20;;;;;;;30.67;33.35;98535.16;4901177;29;20055;-83
2022/07/25 03:57:33;;;;;;;10.60;5.80;;;;;;;31.02;32.60;98537.41;4900983;29;20072;-81
2022/07/25 03:59:58;;;;;;;12.05;5.90;;;;;;;31.44;32.34;98545.84;4885659;29;20024;-81
2022/07/25 04:02:24;;;;;;;8.73;6.50;;;;;;;31.70;31.02;98544.19;4869991;29;20071;-82
2022/07/25 04:04:50;;;;;;;9.63;5.60;;;;;;;31.96;30.72;98542.47;4885825;29;20099;-81
2022/07/25 04:07:16;;;;;;;9.60;5.85;;;;;;;32.32;30.18;98544.53;4869683;29;20107;-81
2022/07/25 04:09:41;;;;;;;12.30;5.75;;;;;;;32.74;29.87;98555.22;4901458;29;20032;-81
2022/07/25 04:12:07;;;;;;;7.18;5.63;;;;;;;32.95;29.47;98556.06;4870675;29;20032;-81
2022/07/25 04:14:32;;;;;;;13.52;5.78;;;;;;;32.79;29.28;98552.53;4885535;29;20048;-82
2022/07/25 04:16:58;;;;;;;11.68;6.25;;;;;;;32.73;29.20;98553.59;4901079;29;20036;-82
2022/07/25 04:19:23;;;;;;;17.85;6.63;;;;;;;32.73;29.11;98560.88;4885603;29;20077;-83
2022/07/25 04:21:49;;;;;;;15.98;6.32;;;;;;;32.76;30.59;98554.94;4885666;29;20048;-81
2022/07/25 04:24:14;;;;;;;13.32;5.82;;;;;;;32.57;30.80;98571.63;4900712;29;20419;-81
2022/07/25 04:26:41;;;;;;;13.50;5.97;;;;;;;32.42;31.26;98563.47;4880603;29;20476;-85
2022/07/25 04:29:06;;;;;;;13.23;6.65;;;;;;;32.47;31.21;98569.69;4886663;29;20028;-85
2022/07/25 04:31:32;;;;;;;15.63;6.30;;;;;;;32.38;31.44;98565.88;4875652;29;20035;-86
2022/07/25 04:33:58;;;;;;;11.27;6.22;;;;;;;32.47;31.13;98579.69;4898600;29;20028;-85
2022/07/25 04:36:25;;;;;;;13.20;6.22;;;;;;;32.55;31.20;98581.88;4908634;29;20403;-87
2022/07/25 04:38:51;;;;;;;15.90;6.43;;;;;;;32.71;31.12;98579.28;4881689;29;20071;-84
2022/07/25 04:41:17;;;;;;;15.23;6.40;;;;;;;33.07;30.45;98582.84;4888608;29;20128;-84
2022/07/25 04:43:42;;;;;;;11.68;6.40;;;;;;;33.72;29.81;98579.66;4873523;29;20584;-82
2022/07/25 04:46:08;;;;;;;14.25;6.47;;;;;;;34.64;28.54;98580.47;4889584;29;20059;-79
2022/07/25 04:48:33;;;;;;;11.70;5.90;;;;;;;35.37;27.37;98581.69;4859093;29;20066;-81
2022/07/25 04:50:59;;;;;;;9.25;5.78;;;;;;;36.13;26.52;98587.47;4886783;29;20052;-79
2022/07/25 04:53:36;;;;;;;7.38;5.22;;;;;;;36.96;25.36;98600.88;4869391;29;20028;-93
2022/07/25 04:56:02;;;;;;;10.10;5.70;;;;;;;37.70;24.22;98603.84;4889435;29;20037;-91
2022/07/25 04:58:27;;;;;;;13.07;5.82;;;;;;;38.26;23.45;98590.28;4898055;29;20028;-90
2022/07/25 05:00:53;;;;;;;13.73;5.38;;;;;;;38.95;22.60;98598.34;4916951;29;20119;-94
2022/07/25 05:03:18;;;;;;;9.73;5.32;;;;;;;39.56;21.62;98600.75;4903864;29;20044;-84
2022/07/25 05:05:44;;;;;;;12.98;5.60;;;;;;;39.92;20.79;98603.34;4886347;29;20049;-90
2022/07/25 05:08:16;;;;;;;14.93;5.43;;;;;;;39.99;20.42;98608.38;4877814;29;20025;-85
2022/07/25 05:10:48;;;;;;;12.50;5.60;;;;;;;40.37;20.02;98599.66;4891963;29;20047;-86
2022/07/25 05:13:13;;;;;;;13.73;4.80;;;;;;;40.70;19.45;98608.28;4872498;29;20507;-83
2022/07/25 05:15:39;;;;;;;14.15;5.28;;;;;;;40.74;18.82;98608.47;4888133;29;20087;-84
2022/07/25 05:18:13;;;;;;;18.00;4.93;;;;;;;40.90;19.01;98614.28;4900962;29;20032;-87
2022/07/25 05:20:40;;;;;;;12.65;5.03;;;;;;;41.07;18.27;98615.41;4910219;29;20095;-84
2022/07/25 05:23:05;;;;;;;9.40;4.78;;;;;;;41.29;18.18;98608.97;4871555;29;20411;-89
2022/07/25 05:25:31;;;;;;;9.23;4.72;;;;;;;41.99;17.61;98614.28;4888424;29;20032;-81
2022/07/25 05:27:57;;;;;;;9.38;4.78;;;;;;;42.49;16.80;98616.31;4913937;29;20526;-82
2022/07/25 05:30:23;;;;;;;9.30;4.32;;;;;;;42.87;16.34;98600.91;4881845;29;20036;-83
2022/07/25 05:32:49;;;;;;;10.17;4.40;;;;;;;43.58;15.84;98610.97;4876002;29;20138;-83
2022/07/25 05:35:15;;;;;;;8.48;4.45;;;;;;;44.18;15.38;98607.84;4855431;29;20059;-81
2022/07/25 05:37:41;;;;;;;8.60;4.37;;;;;;;44.05;15.19;98605.09;4872553;29;20127;-83
2022/07/25 05:40:07;;;;;;;12.80;4.47;;;;;;;43.75;15.79;98598.97;4868291;29;20033;-82
2022/07/25 05:42:32;;;;;;;9.97;4.50;;;;;;;43.82;15.98;98604.72;4888207;29;20048;-84
2022/07/25 05:44:58;;;;;;;13.30;4.57;;;;;;;43.08;16.85;98596.25;4886448;29;20059;-86
2022/07/25 05:47:25;;;;;;;6.63;4.47;;;;;;;42.48;17.36;98595.53;4859401;29;20697;-87
2022/07/25 05:49:50;;;;;;;11.48;4.63;;;;;;;41.91;17.45;98594.84;4889916;29;20484;-86
2022/07/25 05:52:16;;;;;;;10.38;4.93;;;;;;;41.42;18.15;98594.31;4889799;29;20092;-88
2022/07/25 05:54:41;;;;;;;13.30;4.97;;;;;;;41.27;17.96;98592.06;4897699;29;20036;-85
2022/07/25 05:57:07;;;;;;;9.82;4.95;;;;;;;40.86;18.90;98592.25;4875770;29;20051;-85
2022/07/25 05:59:33;;;;;;;12.90;5.53;;;;;;;40.22;19.35;98587.25;4888788;29;20051;-84
2022/07/25 06:02:00;;;;;;;10.13;5.40;;;;;;;39.63;19.67;98590.19;4888350;29;20487;-86
2022/07/25 06:04:25;;;;;;;;;;;;;;;39.19;20.33;98586.34;4911826;29;20036;-90
2022/07/25 06:06:55;;;;;;;18.07;5.30;;;;;;;38.53;21.05;98581.25;4876929;29;19912;-86
2022/07/25 06:09:30;;;;;;;14.68;5.40;;;;;;;38.10;21.30;98573.41;4894742;29;20044;-87
2022/07/25 06:11:56;;;;;;;11.93;5.53;;;;;;;37.79;22.14;98587.59;4875736;29;20086;-87
2022/07/25 06:14:23;;;;;;;12.07;5.50;;;;;;;37.49;22.75;98584.28;4887532;29;20032;-87
2022/07/25 06:16:49;;;;;;;9.13;5.90;;;;;;;37.31;24.20;98585.94;4883264;29;20032;-86
2022/07/25 06:19:14;;;;;;;12.23;7.30;;;;;;;37.06;24.57;98590.63;4909350;29;20083;-82
2022/07/25 06:21:41;;;;;;;13.13;7.00;;;;;;;36.76;25.03;98589.19;4877498;29;20028;-86
2022/07/25 06:24:09;;;;;;;10.48;6.03;;;;;;;36.90;24.89;98590.06;4874722;29;20036;-86
2022/07/25 06:26:37;;;;;;;14.50;6.07;;;;;;;37.56;24.25;98592.88;4892340;29;20045;-86
2022/07/25 06:29:04;;;;;;;11.48;5.95;;;;;;;37.95;23.43;98588.91;4875692;29;20033;-86
2022/07/25 06:31:30;;;;;;;12.52;5.25;;;;;;;38.15;23.35;98586.91;4855268;29;20404;-82
2022/07/25 06:33:56;;;;;;;16.98;5.47;;;;;;;38.09;22.82;98583.47;4898133;29;20040;-85
2022/07/25 06:36:22;;;;;;;14.75;5.70;;;;;;;37.82;23.43;98584.25;4870884;29;20039;-82
2022/07/25 06:38:48;;;;;;;10.60;5.10;;;;;;;37.51;23.65;98595.66;4885583;29;20047;-82
2022/07/25 06:41:17;;;;;;;17.85;5.47;;;;;;;37.49;23.77;98581.53;4901971;29;20059;-83
2022/07/25 06:43:44;;;;;;;15.80;5.35;;;;;;;37.55;23.88;98599.41;4867890;29;20040;-85
2022/07/25 06:46:09;;;;;;;14.95;5.13;;;;;;;37.37;24.04;98594.81;4867794;29;20512;-83
2022/07/25 06:48:36;;;;;;;10.48;5.10;;;;;;;37.28;23.88;98592.78;4868009;29;20047;-85
2022/07/25 06:51:02;;;;;;;9.40;5.30;;;;;;;37.19;24.11;98596.44;4867954;29;20424;-85
2022/07/25 06:53:28;;;;;;;7.80;5.13;;;;;;;37.28;24.05;98592.78;4868066;29;20039;-87
2022/07/25 06:55:53;;;;;;;18.42;5.60;;;;;;;37.55;24.50;98601.34;4882695;29;20061;-79
2022/07/25 06:58:19;;;;;;;15.90;5.35;;;;;;;37.73;24.57;98600.47;4900928;29;20020;-81
2022/07/25 07:00:45;;;;;;;11.57;5.78;;;;;;;37.46;24.79;98599.31;4867481;29;20048;-86
2022/07/25 07:03:12;;;;;;;10.13;5.43;;;;;;;37.27;25.14;98607.50;4883031;29;20170;-85
2022/07/25 07:05:38;;;;;;;11.68;5.18;;;;;;;37.04;25.14;98597.50;4868059;29;20563;-80
2022/07/25 07:08:04;;;;;;;10.70;4.97;;;;;;;36.79;25.04;98596.75;4881965;29;20025;-80
2022/07/25 07:10:30;;;;;;;13.73;5.07;;;;;;;36.61;25.00;98597.50;4871411;29;20556;-85
2022/07/25 07:13:12;;;;;;;12.63;5.05;;;;;;;36.45;25.42;98596.91;4854461;29;20412;-88
2022/07/25 07:15:38;;;;;;;9.88;5.05;;;;;;;36.28;25.75;98595.47;4854167;29;20049;-87
2022/07/25 07:18:05;;;;;;;12.35;4.68;;;;;;;36.18;25.94;98601.00;4851949;29;20040;-84
2022/07/25 07:20:30;;;;;;;9.45;4.90;;;;;;;36.08;26.09;98598.41;4867507;29;20503;-86
2022/07/25 07:22:56;;;;;;;12.00;5.10;;;;;;;35.96;26.34;98590.63;4883800;29;20036;-81
2022/07/25 07:25:23;;;;;;;11.20;4.55;;;;;;;35.93;26.07;98599.38;4902257;29;20032;-90
2022/07/25 07:27:49;;;;;;;10.57;4.90;;;;;;;35.94;25.83;98607.22;4853181;29;20544;-86
2022/07/25 07:30:14;;;;;;;11.07;4.70;;;;;;;36.09;25.89;98603.56;4852582;29;20060;-89
2022/07/25 07:32:41;;;;;;;8.85;4.53;;;;;;;36.12;25.82;98604.84;4883701;29;20075;-88
2022/07/25 07:35:07;;;;;;;7.15;4.30;;;;;;;36.04;26.01;98598.16;4901040;29;20414;-89
2022/07/25 07:37:33;;;;;;;7.10;4.43;;;;;;;36.00;26.39;98606.06;4884112;29;20036;-89
2022/07/25 07:39:59;;;;;;;7.88;4.40;;;;;;;36.00;26.32;98616.13;4885297;29;20035;-88
2022/07/25 07:42:25;;;;;;;9.82;4.88;;;;;;;36.03;26.60;98610.13;4869929;29;20056;-88
2022/07/25 07:44:50;;;;;;;9.85;4.65;;;;;;;36.07;26.66;98613.06;4869157;29;20036;-88
2022/07/25 07:47:16;;;;;;;10.13;5.10;;;;;;;36.07;26.61;98613.88;4869176;29;20037;-87
2022/07/25 07:49:41;;;;;;;10.10;5.13;;;;;;;36.17;26.16;98616.50;4853642;29;20300;-88
2022/07/25 07:52:08;;;;;;;10.75;4.22;;;;;;;36.65;25.51;98626.53;4868355;29;20060;-88
2022/07/25 07:57:18;;;;;;;9.18;4.57;;;;;;;38.61;23.11;98623.34;4872879;29;20502;-87
2022/07/25 07:59:44;;;;;;;7.95;4.50;;;;;;;39.24;22.08;98627.19;4883827;29;20400;-88
2022/07/25 08:02:11;;;;;;;8.60;4.45;;;;;;;39.21;22.24;98627.81;4866882;29;20048;-88
2022/07/25 08:04:37;;;;;;;8.48;4.15;;;;;;;39.37;21.94;98626.31;4868265;29;20028;-87
2022/07/25 08:07:05;;;;;;;15.55;4.68;;;;;;;39.30;22.05;98625.13;4868254;29;20048;-87
2022/07/25 08:09:41;;;;;;;17.88;4.82;;;;;;;39.96;21.59;98625.38;4868896;29;20029;-88
2022/07/25 08:12:06;;;;;;;9.52;4.40;;;;;;;40.65;20.34;98632.25;4869690;29;20093;-89
2022/07/25 08:14:32;;;;;;;10.85;4.18;;;;;;;41.11;20.04;98630.88;4853419;29;20129;-86
2022/07/25 08:16:58;;;;;;;5.15;3.70;;;;;;;41.16;19.84;98627.16;4883620;29;20033;-87
2022/07/25 08:19:25;;;;;;;11.57;4.13;;;;;;;41.09;19.71;98630.41;4900109;29;20035;-87
2022/07/25 08:21:50;;;;;;;7.25;4.30;;;;;;;40.75;20.32;98623.72;4883492;29;20416;-87
2022/07/25 08:24:16;;;;;;;9.73;3.90;;;;;;;40.75;20.00;98622.94;4867472;29;20079;-89
2022/07/25 08:26:41;;;;;;;9.45;4.50;;;;;;;40.37;20.08;98618.81;4851567;29;20079;-88
2022/07/25 08:29:07;;;;;;;9.88;4.20;;;;;;;40.06;20.49;98629.78;4870336;29;20036;-87
2022/07/25 08:31:32;;;;;;;6.63;4.40;;;;;;;40.09;20.46;98629.97;4867776;29;20147;-87
2022/07/25 08:33:58;;;;;;;10.38;4.18;;;;;;;40.54;20.06;98611.81;4857609;29;20032;-83
2022/07/25 08:36:23;;;;;;;6.25;4.35;;;;;;;40.21;20.78;98621.16;4881242;29;20556;-83
2022/07/25 08:38:49;;;;;;;11.70;4.10;;;;;;;40.05;20.82;98623.53;4865877;29;20532;-83
2022/07/25 08:41:15;;;;;;;5.88;4.03;;;;;;;39.88;21.23;98626.94;4844250;29;20104;-89
2022/07/25 08:43:42;;;;;;;8.57;4.50;;;;;;;39.68;21.37;98624.75;4841881;29;20123;-84
2022/07/25 08:46:07;;;;;;;;;;;;;;;39.59;21.22;98633.72;4878745;29;20040;-87
2022/07/25 08:48:34;;;;;;;9.57;4.50;;;;;;;39.65;21.16;98628.09;4860028;29;19922;-87
2022/07/25 08:51:00;;;;;;;7.65;4.20;;;;;;;39.79;21.18;98629.66;4861384;29;20025;-83
2022/07/25 08:53:28;;;;;;;10.32;4.07;;;;;;;40.06;21.12;98630.63;4841286;29;20522;-87
2022/07/25 08:55:53;;;;;;;8.88;4.25;;;;;;;40.20;21.05;98630.50;4857323;29;20039;-86
2022/07/25 08:58:19;;;;;;;11.85;4.10;;;;;;;40.42;20.54;98629.66;4879331;29;20025;-80
2022/07/25 09:00:47;;;;;;;9.90;4.22;;;;;;;40.49;20.54;98627.22;4856052;29;20056;-83
2022/07/25 09:03:13;;;;;;;11.05;4.00;;;;;;;40.45;21.10;98634.44;4877924;29;20040;-82
2022/07/25 09:05:40;;;;;;;12.50;4.05;;;;;;;40.70;20.33;98632.91;4872498;29;20416;-82
2022/07/25 09:08:06;;;;;;;;;;;;;;;40.96;20.12;98632.16;4869088;29;20032;-82
2022/07/25 09:10:32;;;;;;;8.73;4.30;;;;;;;40.87;20.20;98620.41;4854593;29;19919;-82
2022/07/25 09:13:02;;;;;;;8.90;4.30;;;;;;;40.82;20.54;98629.53;4874281;29;20037;-78
2022/07/25 09:15:34;;;;;;;6.40;4.18;;;;;;;41.20;19.52;98628.16;4869890;29;20033;-78
2022/07/25 09:18:07;;;;;;;7.40;3.80;;;;;;;41.34;20.01;98631.53;4864770;29;20450;-76
2022/07/25 09:20:46;;;;;;;100.88;6.65;;;;;;;41.38;20.21;98623.47;4842403;29;20124;-79
2022/07/25 09:23:14;;;;;;;64.38;6.28;;;;;;;41.02;20.59;98630.06;4841167;29;20405;-79
2022/07/25 09:25:40;;;;;;;24.20;4.30;;;;;;;40.79;20.43;98629.41;4878301;29;20029;-75
2022/07/25 09:28:17;;;;;;;17.58;4.78;;;;;;;40.48;20.55;98616.63;4853694;29;20116;-76
2022/07/25 09:30:55;;;;;;;;;;;;;;;40.27;20.39;98621.84;4839732;29;20037;-79
2022/07/25 09:33:22;;;;;;;9.57;4.18;;;;;;;40.05;21.30;98620.00;4870272;29;19912;-77
2022/07/25 09:35:48;;;;;;;27.95;5.03;;;;;;;39.88;21.99;98620.69;4865339;29;20043;-76
2022/07/25 09:38:14;;;;;;;17.00;4.57;;;;;;;39.66;21.28;98608.69;4880711;29;20032;-77
2022/07/25 09:40:40;;;;;;;17.90;4.30;;;;;;;39.53;21.08;98620.50;4880893;29;20052;-76
2022/07/25 09:43:06;;;;;;;9.15;4.43;;;;;;;39.45;21.31;98614.63;4864021;29;20197;-75
2022/07/25 09:45:32;;;;;;;7.53;4.18;;;;;;;39.66;21.09;98621.53;4849622;29;20707;-79
2022/07/25 09:48:02;;;;;;;9.30;4.00;;;;;;;39.81;20.83;98618.41;4849726;29;20032;-76
2022/07/25 09:50:29;;;;;;;7.90;4.38;;;;;;;39.93;21.23;98610.44;4865117;29;20096;-74
2022/07/25 09:52:55;;;;;;;5.07;3.80;;;;;;;39.94;21.06;98600.31;4895572;29;20119;-76
2022/07/25 09:55:21;;;;;;;8.98;4.38;;;;;;;39.84;21.34;98608.75;4864934;29;20544;-76
2022/07/25 09:57:48;;;;;;;6.95;3.60;;;;;;;39.74;21.54;98607.13;4864933;29;20032;-77
2022/07/25 10:00:15;;;;;;;9.82;4.10;;;;;;;39.60;21.52;98601.75;4865074;29;20040;-76
2022/07/25 10:02:48;;;;;;;11.30;4.05;;;;;;;39.49;21.62;98598.44;4849743;29;20028;-75
2022/07/25 10:05:16;;;;;;;5.57;4.07;;;;;;;39.39;21.50;98598.69;4911835;29;20477;-77
2022/07/25 10:07:46;;;;;;;12.23;4.10;;;;;;;39.42;21.53;98593.41;4864616;29;20052;-75
2022/07/25 10:10:28;;;;;;;7.90;4.30;;;;;;;39.33;21.76;98592.56;4865494;29;20481;-75
2022/07/25 10:13:10;;;;;;;7.00;4.05;;;;;;;39.45;21.49;98589.25;4895846;29;20479;-74
2022/07/25 10:15:53;;;;;;;5.68;3.90;;;;;;;39.51;21.20;98584.47;4865766;29;20047;-77
2022/07/25 10:18:20;;;;;;;8.00;4.50;;;;;;;39.56;21.07;98584.38;4880393;29;20051;-77
2022/07/25 10:20:46;;;;;;;;;;;;;;;39.62;20.82;98580.41;4865233;29;20036;-76
2022/07/25 10:23:17;;;;;;;9.63;3.93;;;;;;;39.50;21.23;98574.66;4895753;29;19927;-77
2022/07/25 10:25:43;;;;;;;7.85;4.00;;;;;;;39.60;21.33;98577.19;4880500;29;20038;-75
2022/07/25 10:28:09;;;;;;;6.87;4.10;;;;;;;39.66;21.41;98573.16;4896289;29;20086;-75
2022/07/25 10:30:38;;;;;;;7.25;3.88;;;;;;;39.76;21.30;98577.56;4880501;29;20496;-77
2022/07/25 10:33:11;;;;;;;8.73;3.90;;;;;;;39.80;21.17;98584.00;4879916;29;20088;-74
2022/07/25 10:35:37;;;;;;;7.65;3.72;;;;;;;39.81;21.14;98563.78;4880650;29;20063;-75
2022/07/25 10:38:03;;;;;;;9.65;4.00;;;;;;;39.85;20.79;98570.19;4864632;29;20480;-76
2022/07/25 10:40:42;;;;;;;5.72;3.58;;;;;;;39.87;20.97;98569.88;4866608;29;20040;-77
2022/07/25 10:43:17;;;;;;;6.20;3.92;;;;;;;39.86;20.32;98574.56;4868572;29;20035;-75
2022/07/25 10:45:48;;;;;;;8.45;3.85;;;;;;;39.81;20.43;98561.03;4882809;29;20040;-74
2022/07/25 10:48:31;;;;;;;12.25;3.97;;;;;;;39.76;20.79;98563.91;4858577;29;20028;-76
2022/07/25 10:51:06;;;;;;;9.23;3.85;;;;;;;39.69;20.23;98547.97;4854847;29;20036;-76
2022/07/25 10:53:42;;;;;;;8.85;3.78;;;;;;;39.58;20.60;98555.66;4880000;29;20032;-74
2022/07/25 10:56:09;;;;;;;7.80;4.00;;;;;;;39.45;20.61;98557.28;4899491;29;20129;-74
2022/07/25 10:58:57;;;;;;;6.70;3.88;;;;;;;39.32;20.33;98544.53;4867965;29;20037;-75
2022/07/25 11:01:25;;;;;;;6.80;3.67;;;;;;;39.07;20.24;98548.69;4883112;29;20171;-74
2022/07/25 11:03:52;;;;;;;5.43;3.78;;;;;;;38.83;20.36;98540.81;4883034;29;20040;-75
2022/07/25 11:06:32;;;;;;;7.93;3.72;;;;;;;38.66;20.53;98530.53;4883829;29;20037;-75
2022/07/25 11:08:59;;;;;;;7.03;3.58;;;;;;;38.58;21.04;98525.81;4868709;29;20063;-76
2022/07/25 11:11:39;;;;;;;6.10;3.65;;;;;;;38.45;21.12;98520.06;4883346;29;20033;-75
2022/07/25 11:14:32;;;;;;;6.13;3.50;;;;;;;38.47;21.14;98517.84;4883659;29;20092;-75
2022/07/25 11:17:18;;;;;;;4.45;3.50;;;;;;;38.44;21.43;98526.63;4882174;29;20104;-75
2022/07/25 11:20:05;;;;;;;8.82;3.50;;;;;;;38.33;21.04;98512.44;4867704;29;20029;-75
2022/07/25 11:22:31;;;;;;;5.30;3.25;;;;;;;38.35;21.26;98529.28;4882703;29;20032;-75
2022/07/25 11:24:57;;;;;;;6.60;3.10;;;;;;;38.29;21.00;98514.16;4866578;29;20047;-75
2022/07/25 11:27:30;;;;;;;7.10;3.20;;;;;;;38.22;21.01;98511.00;4882662;29;20113;-75
2022/07/25 11:30:18;;;;;;;4.60;3.05;;;;;;;38.16;21.09;98510.34;4883377;29;20080;-75
2022/07/25 11:32:57;;;;;;;6.75;3.10;;;;;;;38.12;21.10;98512.00;4883327;29;20033;-75
2022/07/25 11:35:27;;;;;;;3.95;3.08;;;;;;;38.09;21.44;98512.63;4882686;29;20041;-76
2022/07/25 11:37:53;;;;;;;6.60;2.85;;;;;;;38.01;21.46;98502.44;4867275;29;20045;-76